sensor_id;sensor_type;location;lat;lon;timestamp;P1;durP1;ratioP1;P2;durP2;ratioP2
19782;SDS011;10051;40.294;-3.754;2023-04-27T00:01:12;2.20;;;1.10;;
19782;SDS011;10051;40.294;-3.754;2023-04-27T00:03:38;1.50;;;1.10;;
19782;SDS011;10051;40.294;-3.754;2023-04-27T00:06:06;5.07;;;1.45;;
19782;SDS011;10051;40.294;-3.754;2023-04-27T00:08:33;2.00;;;1.30;;
19782;SDS011;10051;40.294;-3.754;2023-04-27T00:10:58;3.15;;;1.42;;
19782;SDS011;10051;40.294;-3.754;2023-04-27T00:13:24;3.53;;;1.30;;
19782;SDS011;10051;40.294;-3.754;2023-04-27T00:15:50;2.65;;;1.38;;
19782;SDS011;10051;40.294;-3.754;2023-04-27T00:18:16;4.25;;;1.52;;
19782;SDS011;10051;40.294;-3.754;2023-04-27T00:20:42;3.38;;;1.50;;
19782;SDS011;10051;40.294;-3.754;2023-04-27T00:23:08;7.40;;;1.40;;
19782;SDS011;10051;40.294;-3.754;2023-04-27T00:25:35;2.20;;;1.27;;
19782;SDS011;10051;40.294;-3.754;2023-04-27T00:28:00;3.97;;;1.30;;
19782;SDS011;10051;40.294;-3.754;2023-04-27T00:30:26;2.58;;;1.40;;
19782;SDS011;10051;40.294;-3.754;2023-04-27T00:32:51;1.98;;;1.20;;
19782;SDS011;10051;40.294;-3.754;2023-04-27T00:35:17;4.90;;;1.40;;
19782;SDS011;10051;40.294;-3.754;2023-04-27T00:37:42;2.72;;;1.30;;
19782;SDS011;10051;40.294;-3.754;2023-04-27T00:40:08;3.72;;;1.23;;
19782;SDS011;10051;40.294;-3.754;2023-04-27T00:42:34;5.85;;;1.33;;
19782;SDS011;10051;40.294;-3.754;2023-04-27T00:45:00;4.30;;;1.30;;
19782;SDS011;10051;40.294;-3.754;2023-04-27T00:47:26;3.08;;;1.25;;
19782;SDS011;10051;40.294;-3.754;2023-04-27T00:49:52;1.73;;;1.20;;
19782;SDS011;10051;40.294;-3.754;2023-04-27T00:52:18;3.10;;;1.30;;
19782;SDS011;10051;40.294;-3.754;2023-04-27T00:54:44;3.38;;;1.30;;
19782;SDS011;10051;40.294;-3.754;2023-04-27T00:57:11;1.70;;;1.13;;
19782;SDS011;10051;40.294;-3.754;2023-04-27T00:59:36;2.63;;;1.30;;
19782;SDS011;10051;40.294;-3.754;2023-04-27T01:02:02;3.53;;;1.33;;
19782;SDS011;10051;40.294;-3.754;2023-04-27T01:04:27;3.20;;;1.33;;
19782;SDS011;10051;40.294;-3.754;2023-04-27T01:06:54;3.80;;;1.40;;
19782;SDS011;10051;40.294;-3.754;2023-04-27T01:09:19;2.47;;;1.40;;
19782;SDS011;10051;40.294;-3.754;2023-04-27T01:11:45;2.05;;;1.20;;
19782;SDS011;10051;40.294;-3.754;2023-04-27T01:14:11;4.70;;;1.48;;
19782;SDS011;10051;40.294;-3.754;2023-04-27T01:16:37;2.83;;;1.27;;
19782;SDS011;10051;40.294;-3.754;2023-04-27T01:19:03;3.53;;;1.52;;
19782;SDS011;10051;40.294;-3.754;2023-04-27T01:21:29;1.90;;;1.20;;
19782;SDS011;10051;40.294;-3.754;2023-04-27T01:23:55;3.28;;;1.50;;
19782;SDS011;10051;40.294;-3.754;2023-04-27T01:26:20;5.60;;;1.55;;
19782;SDS011;10051;40.294;-3.754;2023-04-27T01:28:46;2.28;;;1.60;;
19782;SDS011;10051;40.294;-3.754;2023-04-27T01:31:12;2.42;;;1.50;;
19782;SDS011;10051;40.294;-3.754;2023-04-27T01:33:39;4.00;;;1.55;;
19782;SDS011;10051;40.294;-3.754;2023-04-27T01:36:05;2.92;;;1.52;;
19782;SDS011;10051;40.294;-3.754;2023-04-27T01:38:34;3.20;;;1.60;;
19782;SDS011;10051;40.294;-3.754;2023-04-27T01:41:02;4.93;;;1.50;;
19782;SDS011;10051;40.294;-3.754;2023-04-27T01:43:29;4.10;;;1.70;;
19782;SDS011;10051;40.294;-3.754;2023-04-27T01:45:55;3.03;;;1.35;;
19782;SDS011;10051;40.294;-3.754;2023-04-27T01:48:21;4.72;;;1.48;;
19782;SDS011;10051;40.294;-3.754;2023-04-27T01:50:47;2.42;;;1.45;;
19782;SDS011;10051;40.294;-3.754;2023-04-27T01:53:12;7.35;;;1.73;;
19782;SDS011;10051;40.294;-3.754;2023-04-27T01:55:38;3.10;;;1.42;;
19782;SDS011;10051;40.294;-3.754;2023-04-27T01:58:04;4.40;;;1.80;;
19782;SDS011;10051;40.294;-3.754;2023-04-27T02:00:29;5.05;;;1.83;;
19782;SDS011;10051;40.294;-3.754;2023-04-27T02:02:55;5.45;;;1.92;;
19782;SDS011;10051;40.294;-3.754;2023-04-27T02:05:22;3.60;;;1.67;;
19782;SDS011;10051;40.294;-3.754;2023-04-27T02:07:49;3.60;;;1.70;;
19782;SDS011;10051;40.294;-3.754;2023-04-27T02:10:15;4.50;;;1.55;;
19782;SDS011;10051;40.294;-3.754;2023-04-27T02:12:40;5.13;;;1.90;;
19782;SDS011;10051;40.294;-3.754;2023-04-27T02:15:06;5.00;;;1.70;;
19782;SDS011;10051;40.294;-3.754;2023-04-27T02:17:33;4.28;;;1.77;;
19782;SDS011;10051;40.294;-3.754;2023-04-27T02:19:59;3.63;;;1.70;;
19782;SDS011;10051;40.294;-3.754;2023-04-27T02:22:25;4.03;;;1.80;;
19782;SDS011;10051;40.294;-3.754;2023-04-27T02:24:50;5.45;;;1.67;;
19782;SDS011;10051;40.294;-3.754;2023-04-27T02:27:16;8.18;;;1.70;;
19782;SDS011;10051;40.294;-3.754;2023-04-27T02:29:42;3.22;;;1.52;;
19782;SDS011;10051;40.294;-3.754;2023-04-27T02:32:07;7.35;;;1.92;;
19782;SDS011;10051;40.294;-3.754;2023-04-27T02:34:33;3.10;;;1.63;;
19782;SDS011;10051;40.294;-3.754;2023-04-27T02:36:58;4.35;;;1.60;;
19782;SDS011;10051;40.294;-3.754;2023-04-27T02:39:24;8.27;;;2.00;;
19782;SDS011;10051;40.294;-3.754;2023-04-27T02:41:49;5.85;;;1.67;;
19782;SDS011;10051;40.294;-3.754;2023-04-27T02:44:15;4.78;;;1.80;;
19782;SDS011;10051;40.294;-3.754;2023-04-27T02:46:41;4.78;;;1.70;;
19782;SDS011;10051;40.294;-3.754;2023-04-27T02:49:06;6.50;;;1.95;;
19782;SDS011;10051;40.294;-3.754;2023-04-27T02:51:32;6.63;;;1.90;;
19782;SDS011;10051;40.294;-3.754;2023-04-27T02:53:58;6.32;;;1.85;;
19782;SDS011;10051;40.294;-3.754;2023-04-27T02:56:23;5.63;;;1.70;;
19782;SDS011;10051;40.294;-3.754;2023-04-27T02:58:49;6.93;;;1.90;;
19782;SDS011;10051;40.294;-3.754;2023-04-27T03:01:14;6.68;;;2.10;;
19782;SDS011;10051;40.294;-3.754;2023-04-27T03:03:46;8.63;;;2.30;;
19782;SDS011;10051;40.294;-3.754;2023-04-27T03:06:12;9.05;;;2.20;;
19782;SDS011;10051;40.294;-3.754;2023-04-27T03:08:38;6.65;;;2.28;;
19782;SDS011;10051;40.294;-3.754;2023-04-27T03:11:03;7.28;;;2.08;;
19782;SDS011;10051;40.294;-3.754;2023-04-27T03:13:29;6.95;;;2.00;;
19782;SDS011;10051;40.294;-3.754;2023-04-27T03:15:55;8.65;;;1.95;;
19782;SDS011;10051;40.294;-3.754;2023-04-27T03:18:21;6.25;;;1.90;;
19782;SDS011;10051;40.294;-3.754;2023-04-27T03:20:46;11.13;;;2.20;;
19782;SDS011;10051;40.294;-3.754;2023-04-27T03:23:12;8.50;;;2.10;;
19782;SDS011;10051;40.294;-3.754;2023-04-27T03:25:38;7.07;;;1.98;;
19782;SDS011;10051;40.294;-3.754;2023-04-27T03:28:03;7.05;;;2.10;;
19782;SDS011;10051;40.294;-3.754;2023-04-27T03:30:29;10.05;;;2.10;;
19782;SDS011;10051;40.294;-3.754;2023-04-27T03:32:57;7.93;;;2.20;;
19782;SDS011;10051;40.294;-3.754;2023-04-27T03:35:23;6.47;;;1.98;;
19782;SDS011;10051;40.294;-3.754;2023-04-27T03:37:48;8.88;;;2.20;;
19782;SDS011;10051;40.294;-3.754;2023-04-27T03:40:14;5.72;;;2.17;;
19782;SDS011;10051;40.294;-3.754;2023-04-27T03:42:40;11.48;;;2.42;;
19782;SDS011;10051;40.294;-3.754;2023-04-27T03:45:05;9.50;;;2.20;;
19782;SDS011;10051;40.294;-3.754;2023-04-27T03:47:32;8.15;;;2.17;;
19782;SDS011;10051;40.294;-3.754;2023-04-27T03:49:57;9.93;;;2.33;;
19782;SDS011;10051;40.294;-3.754;2023-04-27T03:52:23;12.00;;;2.60;;
19782;SDS011;10051;40.294;-3.754;2023-04-27T03:54:49;8.25;;;4.00;;
19782;SDS011;10051;40.294;-3.754;2023-04-27T03:57:14;9.70;;;4.03;;
19782;SDS011;10051;40.294;-3.754;2023-04-27T03:59:40;14.02;;;3.95;;
19782;SDS011;10051;40.294;-3.754;2023-04-27T04:02:05;7.07;;;3.35;;
19782;SDS011;10051;40.294;-3.754;2023-04-27T04:04:32;5.78;;;3.00;;
19782;SDS011;10051;40.294;-3.754;2023-04-27T04:06:58;11.75;;;2.80;;
19782;SDS011;10051;40.294;-3.754;2023-04-27T04:09:23;14.98;;;2.65;;
19782;SDS011;10051;40.294;-3.754;2023-04-27T04:11:50;9.00;;;3.00;;
19782;SDS011;10051;40.294;-3.754;2023-04-27T04:14:16;10.55;;;2.85;;
19782;SDS011;10051;40.294;-3.754;2023-04-27T04:16:42;7.90;;;2.65;;
19782;SDS011;10051;40.294;-3.754;2023-04-27T04:19:08;7.68;;;2.42;;
19782;SDS011;10051;40.294;-3.754;2023-04-27T04:21:33;10.30;;;2.70;;
19782;SDS011;10051;40.294;-3.754;2023-04-27T04:23:59;10.57;;;2.58;;
19782;SDS011;10051;40.294;-3.754;2023-04-27T04:26:25;9.23;;;2.45;;
19782;SDS011;10051;40.294;-3.754;2023-04-27T04:28:51;12.27;;;2.60;;
19782;SDS011;10051;40.294;-3.754;2023-04-27T04:31:16;6.30;;;2.30;;
19782;SDS011;10051;40.294;-3.754;2023-04-27T04:33:42;6.65;;;2.40;;
19782;SDS011;10051;40.294;-3.754;2023-04-27T04:36:08;6.57;;;2.40;;
19782;SDS011;10051;40.294;-3.754;2023-04-27T04:38:35;8.43;;;2.72;;
19782;SDS011;10051;40.294;-3.754;2023-04-27T04:41:01;9.00;;;2.60;;
19782;SDS011;10051;40.294;-3.754;2023-04-27T04:43:27;11.30;;;2.50;;
19782;SDS011;10051;40.294;-3.754;2023-04-27T04:45:53;6.93;;;2.75;;
19782;SDS011;10051;40.294;-3.754;2023-04-27T04:48:18;7.35;;;2.83;;
19782;SDS011;10051;40.294;-3.754;2023-04-27T04:50:44;7.97;;;2.67;;
19782;SDS011;10051;40.294;-3.754;2023-04-27T04:53:10;8.70;;;2.80;;
19782;SDS011;10051;40.294;-3.754;2023-04-27T04:55:35;8.60;;;3.05;;
19782;SDS011;10051;40.294;-3.754;2023-04-27T04:58:01;9.20;;;2.80;;
19782;SDS011;10051;40.294;-3.754;2023-04-27T05:00:27;9.38;;;3.10;;
19782;SDS011;10051;40.294;-3.754;2023-04-27T05:02:55;14.50;;;2.97;;
19782;SDS011;10051;40.294;-3.754;2023-04-27T05:05:20;7.95;;;2.75;;
19782;SDS011;10051;40.294;-3.754;2023-04-27T05:07:46;8.02;;;2.75;;
19782;SDS011;10051;40.294;-3.754;2023-04-27T05:10:12;8.80;;;3.00;;
19782;SDS011;10051;40.294;-3.754;2023-04-27T05:12:37;12.77;;;2.85;;
19782;SDS011;10051;40.294;-3.754;2023-04-27T05:15:03;13.90;;;3.22;;
19782;SDS011;10051;40.294;-3.754;2023-04-27T05:17:29;7.20;;;3.03;;
19782;SDS011;10051;40.294;-3.754;2023-04-27T05:19:55;9.20;;;3.10;;
19782;SDS011;10051;40.294;-3.754;2023-04-27T05:22:20;10.07;;;2.75;;
19782;SDS011;10051;40.294;-3.754;2023-04-27T05:24:46;8.50;;;2.78;;
19782;SDS011;10051;40.294;-3.754;2023-04-27T05:27:12;11.98;;;2.60;;
19782;SDS011;10051;40.294;-3.754;2023-04-27T05:29:38;13.70;;;2.92;;
19782;SDS011;10051;40.294;-3.754;2023-04-27T05:32:05;10.05;;;3.00;;
19782;SDS011;10051;40.294;-3.754;2023-04-27T05:34:30;10.73;;;3.00;;
19782;SDS011;10051;40.294;-3.754;2023-04-27T05:36:56;9.27;;;2.67;;
19782;SDS011;10051;40.294;-3.754;2023-04-27T05:39:21;13.00;;;2.95;;
19782;SDS011;10051;40.294;-3.754;2023-04-27T05:41:47;10.07;;;2.63;;
19782;SDS011;10051;40.294;-3.754;2023-04-27T05:44:13;7.72;;;2.60;;
19782;SDS011;10051;40.294;-3.754;2023-04-27T05:46:38;9.55;;;2.28;;
19782;SDS011;10051;40.294;-3.754;2023-04-27T05:49:04;10.32;;;2.60;;
19782;SDS011;10051;40.294;-3.754;2023-04-27T05:51:31;7.80;;;2.47;;
19782;SDS011;10051;40.294;-3.754;2023-04-27T05:53:57;7.97;;;2.50;;
19782;SDS011;10051;40.294;-3.754;2023-04-27T05:56:24;6.72;;;2.65;;
19782;SDS011;10051;40.294;-3.754;2023-04-27T05:58:50;8.30;;;2.47;;
19782;SDS011;10051;40.294;-3.754;2023-04-27T06:01:15;12.40;;;2.60;;
19782;SDS011;10051;40.294;-3.754;2023-04-27T06:03:41;8.10;;;2.35;;
19782;SDS011;10051;40.294;-3.754;2023-04-27T06:06:07;6.28;;;2.70;;
19782;SDS011;10051;40.294;-3.754;2023-04-27T06:08:32;14.13;;;2.72;;
19782;SDS011;10051;40.294;-3.754;2023-04-27T06:11:01;15.38;;;2.50;;
19782;SDS011;10051;40.294;-3.754;2023-04-27T06:13:27;16.83;;;2.90;;
19782;SDS011;10051;40.294;-3.754;2023-04-27T06:15:52;14.02;;;2.65;;
19782;SDS011;10051;40.294;-3.754;2023-04-27T06:18:18;11.38;;;2.60;;
19782;SDS011;10051;40.294;-3.754;2023-04-27T06:20:43;11.25;;;2.75;;
19782;SDS011;10051;40.294;-3.754;2023-04-27T06:23:09;10.55;;;2.75;;
19782;SDS011;10051;40.294;-3.754;2023-04-27T06:25:35;10.25;;;2.75;;
19782;SDS011;10051;40.294;-3.754;2023-04-27T06:28:02;14.32;;;2.92;;
19782;SDS011;10051;40.294;-3.754;2023-04-27T06:30:28;10.82;;;2.47;;
19782;SDS011;10051;40.294;-3.754;2023-04-27T06:32:54;10.52;;;2.47;;
19782;SDS011;10051;40.294;-3.754;2023-04-27T06:35:20;10.98;;;2.60;;
19782;SDS011;10051;40.294;-3.754;2023-04-27T06:37:46;10.57;;;2.60;;
19782;SDS011;10051;40.294;-3.754;2023-04-27T06:40:12;8.55;;;2.50;;
19782;SDS011;10051;40.294;-3.754;2023-04-27T06:42:37;7.90;;;2.67;;
19782;SDS011;10051;40.294;-3.754;2023-04-27T06:45:03;12.27;;;2.70;;
19782;SDS011;10051;40.294;-3.754;2023-04-27T06:47:29;11.95;;;2.75;;
19782;SDS011;10051;40.294;-3.754;2023-04-27T06:49:55;11.90;;;2.55;;
19782;SDS011;10051;40.294;-3.754;2023-04-27T06:52:21;14.60;;;2.70;;
19782;SDS011;10051;40.294;-3.754;2023-04-27T06:54:47;13.77;;;2.60;;
19782;SDS011;10051;40.294;-3.754;2023-04-27T06:57:12;12.48;;;2.60;;
19782;SDS011;10051;40.294;-3.754;2023-04-27T06:59:38;8.18;;;2.70;;
19782;SDS011;10051;40.294;-3.754;2023-04-27T07:02:04;21.08;;;3.13;;
19782;SDS011;10051;40.294;-3.754;2023-04-27T07:04:30;14.80;;;3.60;;
19782;SDS011;10051;40.294;-3.754;2023-04-27T07:06:56;22.15;;;3.80;;
19782;SDS011;10051;40.294;-3.754;2023-04-27T07:09:21;18.48;;;3.50;;
19782;SDS011;10051;40.294;-3.754;2023-04-27T07:11:47;12.32;;;3.30;;
19782;SDS011;10051;40.294;-3.754;2023-04-27T07:14:13;15.48;;;3.17;;
19782;SDS011;10051;40.294;-3.754;2023-04-27T07:16:38;16.42;;;3.50;;
19782;SDS011;10051;40.294;-3.754;2023-04-27T07:19:04;20.02;;;3.90;;
19782;SDS011;10051;40.294;-3.754;2023-04-27T07:21:30;17.63;;;3.10;;
19782;SDS011;10051;40.294;-3.754;2023-04-27T07:23:55;9.98;;;2.92;;
19782;SDS011;10051;40.294;-3.754;2023-04-27T07:26:21;18.88;;;2.58;;
19782;SDS011;10051;40.294;-3.754;2023-04-27T07:28:50;16.23;;;2.78;;
19782;SDS011;10051;40.294;-3.754;2023-04-27T07:31:16;11.38;;;2.80;;
19782;SDS011;10051;40.294;-3.754;2023-04-27T07:33:41;10.35;;;2.10;;
19782;SDS011;10051;40.294;-3.754;2023-04-27T07:36:07;13.15;;;2.33;;
19782;SDS011;10051;40.294;-3.754;2023-04-27T07:38:33;14.15;;;2.60;;
19782;SDS011;10051;40.294;-3.754;2023-04-27T07:40:59;15.18;;;2.70;;
19782;SDS011;10051;40.294;-3.754;2023-04-27T07:43:27;8.80;;;2.38;;
19782;SDS011;10051;40.294;-3.754;2023-04-27T07:45:53;25.83;;;3.80;;
19782;SDS011;10051;40.294;-3.754;2023-04-27T07:48:19;17.40;;;3.60;;
19782;SDS011;10051;40.294;-3.754;2023-04-27T07:50:46;24.95;;;4.88;;
19782;SDS011;10051;40.294;-3.754;2023-04-27T07:53:12;15.13;;;3.20;;
19782;SDS011;10051;40.294;-3.754;2023-04-27T07:55:38;12.30;;;3.30;;
19782;SDS011;10051;40.294;-3.754;2023-04-27T07:58:03;15.85;;;2.50;;
19782;SDS011;10051;40.294;-3.754;2023-04-27T08:00:29;16.25;;;2.60;;
19782;SDS011;10051;40.294;-3.754;2023-04-27T08:02:55;18.40;;;2.63;;
19782;SDS011;10051;40.294;-3.754;2023-04-27T08:05:21;15.20;;;2.90;;
19782;SDS011;10051;40.294;-3.754;2023-04-27T08:07:47;16.80;;;2.60;;
19782;SDS011;10051;40.294;-3.754;2023-04-27T08:10:13;9.90;;;2.63;;
19782;SDS011;10051;40.294;-3.754;2023-04-27T08:12:39;10.52;;;2.60;;
19782;SDS011;10051;40.294;-3.754;2023-04-27T08:15:05;15.40;;;2.58;;
19782;SDS011;10051;40.294;-3.754;2023-04-27T08:17:31;11.40;;;2.15;;
19782;SDS011;10051;40.294;-3.754;2023-04-27T08:19:57;11.25;;;1.88;;
19782;SDS011;10051;40.294;-3.754;2023-04-27T08:22:23;10.75;;;1.98;;
19782;SDS011;10051;40.294;-3.754;2023-04-27T08:24:48;10.93;;;2.03;;
19782;SDS011;10051;40.294;-3.754;2023-04-27T08:27:14;10.05;;;2.22;;
19782;SDS011;10051;40.294;-3.754;2023-04-27T08:29:43;11.98;;;1.90;;
19782;SDS011;10051;40.294;-3.754;2023-04-27T08:32:12;11.70;;;1.70;;
19782;SDS011;10051;40.294;-3.754;2023-04-27T08:34:38;9.88;;;1.70;;
19782;SDS011;10051;40.294;-3.754;2023-04-27T08:37:04;7.50;;;1.63;;
19782;SDS011;10051;40.294;-3.754;2023-04-27T08:39:32;3.13;;;1.67;;
19782;SDS011;10051;40.294;-3.754;2023-04-27T08:41:58;7.03;;;1.48;;
19782;SDS011;10051;40.294;-3.754;2023-04-27T08:44:23;7.70;;;1.63;;
19782;SDS011;10051;40.294;-3.754;2023-04-27T08:46:49;9.43;;;1.95;;
19782;SDS011;10051;40.294;-3.754;2023-04-27T08:49:15;5.20;;;1.50;;
19782;SDS011;10051;40.294;-3.754;2023-04-27T08:51:41;6.78;;;1.63;;
19782;SDS011;10051;40.294;-3.754;2023-04-27T08:54:07;9.52;;;1.65;;
19782;SDS011;10051;40.294;-3.754;2023-04-27T08:56:33;7.45;;;1.63;;
19782;SDS011;10051;40.294;-3.754;2023-04-27T08:58:59;10.07;;;1.92;;
19782;SDS011;10051;40.294;-3.754;2023-04-27T09:01:25;8.65;;;1.70;;
19782;SDS011;10051;40.294;-3.754;2023-04-27T09:03:55;11.68;;;1.70;;
19782;SDS011;10051;40.294;-3.754;2023-04-27T09:06:28;5.15;;;1.58;;
19782;SDS011;10051;40.294;-3.754;2023-04-27T09:08:55;6.82;;;1.80;;
19782;SDS011;10051;40.294;-3.754;2023-04-27T09:11:27;14.10;;;1.85;;
19782;SDS011;10051;40.294;-3.754;2023-04-27T09:13:55;5.38;;;1.85;;
19782;SDS011;10051;40.294;-3.754;2023-04-27T09:16:26;9.13;;;1.58;;
19782;SDS011;10051;40.294;-3.754;2023-04-27T09:18:53;8.20;;;1.70;;
19782;SDS011;10051;40.294;-3.754;2023-04-27T09:21:27;4.85;;;1.60;;
19782;SDS011;10051;40.294;-3.754;2023-04-27T09:23:54;7.88;;;1.98;;
19782;SDS011;10051;40.294;-3.754;2023-04-27T09:26:20;12.45;;;2.13;;
19782;SDS011;10051;40.294;-3.754;2023-04-27T09:28:52;11.93;;;2.20;;
19782;SDS011;10051;40.294;-3.754;2023-04-27T09:31:21;13.93;;;1.92;;
19782;SDS011;10051;40.294;-3.754;2023-04-27T09:33:54;7.10;;;2.30;;
19782;SDS011;10051;40.294;-3.754;2023-04-27T09:36:20;8.15;;;2.17;;
19782;SDS011;10051;40.294;-3.754;2023-04-27T09:38:48;9.35;;;2.20;;
19782;SDS011;10051;40.294;-3.754;2023-04-27T09:41:15;13.43;;;2.10;;
19782;SDS011;10051;40.294;-3.754;2023-04-27T09:43:45;16.42;;;2.10;;
19782;SDS011;10051;40.294;-3.754;2023-04-27T09:46:11;6.03;;;1.92;;
19782;SDS011;10051;40.294;-3.754;2023-04-27T09:48:38;5.70;;;1.63;;
19782;SDS011;10051;40.294;-3.754;2023-04-27T09:51:04;8.05;;;1.60;;
19782;SDS011;10051;40.294;-3.754;2023-04-27T09:53:37;6.90;;;1.67;;
19782;SDS011;10051;40.294;-3.754;2023-04-27T09:56:23;7.72;;;1.70;;
19782;SDS011;10051;40.294;-3.754;2023-04-27T09:59:07;7.57;;;1.48;;
19782;SDS011;10051;40.294;-3.754;2023-04-27T10:01:45;5.88;;;1.40;;
19782;SDS011;10051;40.294;-3.754;2023-04-27T10:06:58;10.48;;;1.70;;
19782;SDS011;10051;40.294;-3.754;2023-04-27T10:09:26;5.15;;;1.40;;
19782;SDS011;10051;40.294;-3.754;2023-04-27T10:12:12;4.18;;;1.35;;
19782;SDS011;10051;40.294;-3.754;2023-04-27T10:14:50;4.70;;;1.30;;
19782;SDS011;10051;40.294;-3.754;2023-04-27T10:17:24;2.45;;;1.40;;
19782;SDS011;10051;40.294;-3.754;2023-04-27T10:19:57;9.18;;;1.42;;
19782;SDS011;10051;40.294;-3.754;2023-04-27T10:22:43;3.50;;;1.23;;
19782;SDS011;10051;40.294;-3.754;2023-04-27T10:25:15;6.43;;;1.30;;
19782;SDS011;10051;40.294;-3.754;2023-04-27T10:27:52;5.53;;;1.20;;
19782;SDS011;10051;40.294;-3.754;2023-04-27T10:30:20;2.13;;;1.30;;
19782;SDS011;10051;40.294;-3.754;2023-04-27T10:32:57;5.65;;;1.40;;
19782;SDS011;10051;40.294;-3.754;2023-04-27T10:38:09;7.20;;;1.25;;
19782;SDS011;10051;40.294;-3.754;2023-04-27T10:40:45;9.13;;;1.35;;
19782;SDS011;10051;40.294;-3.754;2023-04-27T10:43:24;5.22;;;1.30;;
19782;SDS011;10051;40.294;-3.754;2023-04-27T10:45:53;3.97;;;1.08;;
19782;SDS011;10051;40.294;-3.754;2023-04-27T10:48:20;4.85;;;1.20;;
19782;SDS011;10051;40.294;-3.754;2023-04-27T10:50:46;6.20;;;1.40;;
19782;SDS011;10051;40.294;-3.754;2023-04-27T10:53:15;5.68;;;1.35;;
19782;SDS011;10051;40.294;-3.754;2023-04-27T10:55:41;7.25;;;1.38;;
19782;SDS011;10051;40.294;-3.754;2023-04-27T10:58:07;8.18;;;1.27;;
19782;SDS011;10051;40.294;-3.754;2023-04-27T11:00:34;4.50;;;1.50;;
19782;SDS011;10051;40.294;-3.754;2023-04-27T11:03:13;3.78;;;1.30;;
19782;SDS011;10051;40.294;-3.754;2023-04-27T11:05:41;6.25;;;1.48;;
19782;SDS011;10051;40.294;-3.754;2023-04-27T11:08:12;3.55;;;1.20;;
19782;SDS011;10051;40.294;-3.754;2023-04-27T11:10:39;2.92;;;1.40;;
19782;SDS011;10051;40.294;-3.754;2023-04-27T11:13:16;1.83;;;1.10;;
19782;SDS011;10051;40.294;-3.754;2023-04-27T11:18:11;4.20;;;1.35;;
19782;SDS011;10051;40.294;-3.754;2023-04-27T11:20:37;3.65;;;1.50;;
19782;SDS011;10051;40.294;-3.754;2023-04-27T11:23:03;3.30;;;1.25;;
19782;SDS011;10051;40.294;-3.754;2023-04-27T11:25:28;2.17;;;1.15;;
19782;SDS011;10051;40.294;-3.754;2023-04-27T11:27:54;2.85;;;1.00;;
19782;SDS011;10051;40.294;-3.754;2023-04-27T11:30:20;2.17;;;1.10;;
19782;SDS011;10051;40.294;-3.754;2023-04-27T11:32:47;3.15;;;1.13;;
19782;SDS011;10051;40.294;-3.754;2023-04-27T11:35:13;3.97;;;1.13;;
19782;SDS011;10051;40.294;-3.754;2023-04-27T11:37:40;8.43;;;1.20;;
19782;SDS011;10051;40.294;-3.754;2023-04-27T11:40:12;5.05;;;1.10;;
19782;SDS011;10051;40.294;-3.754;2023-04-27T11:42:38;4.88;;;1.20;;
19782;SDS011;10051;40.294;-3.754;2023-04-27T11:45:09;5.10;;;1.10;;
19782;SDS011;10051;40.294;-3.754;2023-04-27T11:47:35;4.10;;;1.20;;
19782;SDS011;10051;40.294;-3.754;2023-04-27T11:50:03;8.20;;;1.42;;
19782;SDS011;10051;40.294;-3.754;2023-04-27T11:52:39;5.18;;;1.30;;
19782;SDS011;10051;40.294;-3.754;2023-04-27T11:55:05;3.17;;;1.13;;
19782;SDS011;10051;40.294;-3.754;2023-04-27T11:57:39;4.93;;;1.33;;
19782;SDS011;10051;40.294;-3.754;2023-04-27T12:00:05;3.13;;;1.30;;
19782;SDS011;10051;40.294;-3.754;2023-04-27T12:02:34;3.60;;;1.27;;
19782;SDS011;10051;40.294;-3.754;2023-04-27T12:05:01;2.35;;;1.20;;
19782;SDS011;10051;40.294;-3.754;2023-04-27T12:07:27;4.88;;;1.10;;
19782;SDS011;10051;40.294;-3.754;2023-04-27T12:09:53;1.65;;;1.00;;
19782;SDS011;10051;40.294;-3.754;2023-04-27T12:12:19;1.92;;;1.00;;
19782;SDS011;10051;40.294;-3.754;2023-04-27T12:14:46;3.42;;;1.23;;
19782;SDS011;10051;40.294;-3.754;2023-04-27T12:17:13;2.00;;;0.93;;
19782;SDS011;10051;40.294;-3.754;2023-04-27T12:19:38;3.50;;;1.13;;
19782;SDS011;10051;40.294;-3.754;2023-04-27T12:22:04;3.80;;;1.30;;
19782;SDS011;10051;40.294;-3.754;2023-04-27T12:24:30;5.53;;;1.30;;
19782;SDS011;10051;40.294;-3.754;2023-04-27T12:26:56;2.80;;;1.25;;
19782;SDS011;10051;40.294;-3.754;2023-04-27T12:29:22;4.10;;;1.08;;
19782;SDS011;10051;40.294;-3.754;2023-04-27T12:31:48;3.22;;;1.30;;
19782;SDS011;10051;40.294;-3.754;2023-04-27T12:34:14;2.35;;;1.27;;
19782;SDS011;10051;40.294;-3.754;2023-04-27T12:36:40;2.47;;;1.20;;
19782;SDS011;10051;40.294;-3.754;2023-04-27T12:39:14;4.30;;;1.10;;
19782;SDS011;10051;40.294;-3.754;2023-04-27T12:41:44;4.10;;;1.15;;
19782;SDS011;10051;40.294;-3.754;2023-04-27T12:44:11;5.13;;;1.00;;
19782;SDS011;10051;40.294;-3.754;2023-04-27T12:46:38;3.15;;;1.00;;
19782;SDS011;10051;40.294;-3.754;2023-04-27T12:49:04;2.60;;;1.00;;
19782;SDS011;10051;40.294;-3.754;2023-04-27T12:51:31;5.38;;;0.80;;
19782;SDS011;10051;40.294;-3.754;2023-04-27T12:53:58;4.40;;;1.02;;
19782;SDS011;10051;40.294;-3.754;2023-04-27T12:56:24;8.70;;;1.10;;
19782;SDS011;10051;40.294;-3.754;2023-04-27T12:58:49;4.10;;;0.85;;
19782;SDS011;10051;40.294;-3.754;2023-04-27T13:01:15;1.67;;;0.80;;
19782;SDS011;10051;40.294;-3.754;2023-04-27T13:03:41;2.35;;;0.90;;
19782;SDS011;10051;40.294;-3.754;2023-04-27T13:06:07;3.17;;;1.00;;
19782;SDS011;10051;40.294;-3.754;2023-04-27T13:08:34;2.45;;;1.10;;
19782;SDS011;10051;40.294;-3.754;2023-04-27T13:11:01;2.03;;;0.85;;
19782;SDS011;10051;40.294;-3.754;2023-04-27T13:13:26;2.42;;;0.88;;
19782;SDS011;10051;40.294;-3.754;2023-04-27T13:15:52;1.67;;;0.85;;
19782;SDS011;10051;40.294;-3.754;2023-04-27T13:18:17;1.65;;;0.95;;
19782;SDS011;10051;40.294;-3.754;2023-04-27T13:20:43;2.35;;;0.80;;
19782;SDS011;10051;40.294;-3.754;2023-04-27T13:23:09;4.80;;;0.80;;
19782;SDS011;10051;40.294;-3.754;2023-04-27T13:25:35;2.15;;;0.80;;
19782;SDS011;10051;40.294;-3.754;2023-04-27T13:28:01;2.58;;;0.80;;
19782;SDS011;10051;40.294;-3.754;2023-04-27T13:30:26;3.72;;;0.80;;
19782;SDS011;10051;40.294;-3.754;2023-04-27T13:32:52;2.58;;;0.80;;
19782;SDS011;10051;40.294;-3.754;2023-04-27T13:35:18;1.20;;;0.80;;
19782;SDS011;10051;40.294;-3.754;2023-04-27T13:37:45;3.17;;;1.00;;
19782;SDS011;10051;40.294;-3.754;2023-04-27T13:40:10;2.60;;;0.90;;
19782;SDS011;10051;40.294;-3.754;2023-04-27T13:42:46;5.75;;;1.00;;
19782;SDS011;10051;40.294;-3.754;2023-04-27T13:45:12;3.42;;;0.93;;
19782;SDS011;10051;40.294;-3.754;2023-04-27T13:47:40;2.00;;;0.90;;
19782;SDS011;10051;40.294;-3.754;2023-04-27T13:50:07;2.30;;;0.90;;
19782;SDS011;10051;40.294;-3.754;2023-04-27T13:52:35;4.82;;;0.80;;
19782;SDS011;10051;40.294;-3.754;2023-04-27T13:55:02;3.60;;;0.82;;
19782;SDS011;10051;40.294;-3.754;2023-04-27T13:57:28;3.55;;;1.00;;
19782;SDS011;10051;40.294;-3.754;2023-04-27T13:59:54;4.57;;;1.00;;
19782;SDS011;10051;40.294;-3.754;2023-04-27T14:02:20;4.20;;;0.98;;
19782;SDS011;10051;40.294;-3.754;2023-04-27T14:04:45;3.97;;;0.85;;
19782;SDS011;10051;40.294;-3.754;2023-04-27T14:07:11;4.40;;;1.00;;
19782;SDS011;10051;40.294;-3.754;2023-04-27T14:09:36;3.50;;;1.00;;
19782;SDS011;10051;40.294;-3.754;2023-04-27T14:12:02;2.05;;;0.90;;
19782;SDS011;10051;40.294;-3.754;2023-04-27T14:14:28;4.22;;;1.05;;
19782;SDS011;10051;40.294;-3.754;2023-04-27T14:16:54;4.05;;;0.80;;
19782;SDS011;10051;40.294;-3.754;2023-04-27T14:19:20;3.33;;;0.80;;
19782;SDS011;10051;40.294;-3.754;2023-04-27T14:21:47;4.65;;;0.98;;
19782;SDS011;10051;40.294;-3.754;2023-04-27T14:24:13;1.80;;;0.80;;
19782;SDS011;10051;40.294;-3.754;2023-04-27T14:26:39;2.28;;;0.93;;
19782;SDS011;10051;40.294;-3.754;2023-04-27T14:29:08;2.80;;;0.90;;
19782;SDS011;10051;40.294;-3.754;2023-04-27T14:31:35;2.25;;;1.00;;
19782;SDS011;10051;40.294;-3.754;2023-04-27T14:34:01;2.85;;;0.93;;
19782;SDS011;10051;40.294;-3.754;2023-04-27T14:36:29;16.67;;;7.65;;